sensor_id;sensor_type;location;lat;lon;timestamp;temperature;humidity
3925;DHT22;1977;52.274;10.518;2023-07-29T00:01:14;21.50;99.90
3925;DHT22;1977;52.274;10.518;2023-07-29T00:03:40;21.50;99.90
3925;DHT22;1977;52.274;10.518;2023-07-29T00:06:09;21.40;99.90
3925;DHT22;1977;52.274;10.518;2023-07-29T00:08:36;21.60;99.90
3925;DHT22;1977;52.274;10.518;2023-07-29T00:11:03;21.40;99.90
3925;DHT22;1977;52.274;10.518;2023-07-29T00:13:31;21.40;99.90
3925;DHT22;1977;52.274;10.518;2023-07-29T00:15:58;21.40;99.90
3925;DHT22;1977;52.274;10.518;2023-07-29T00:18:25;21.40;99.90
3925;DHT22;1977;52.274;10.518;2023-07-29T00:20:53;21.40;99.90
3925;DHT22;1977;52.274;10.518;2023-07-29T00:23:19;21.40;99.90
3925;DHT22;1977;52.274;10.518;2023-07-29T00:25:47;21.40;99.90
3925;DHT22;1977;52.274;10.518;2023-07-29T00:28:13;21.50;99.90
3925;DHT22;1977;52.274;10.518;2023-07-29T00:30:42;21.70;99.90
3925;DHT22;1977;52.274;10.518;2023-07-29T00:33:08;21.40;99.90
3925;DHT22;1977;52.274;10.518;2023-07-29T00:35:35;21.70;99.90
3925;DHT22;1977;52.274;10.518;2023-07-29T00:38:02;21.70;99.90
3925;DHT22;1977;52.274;10.518;2023-07-29T00:40:29;21.50;99.90
3925;DHT22;1977;52.274;10.518;2023-07-29T00:42:56;21.50;99.90
3925;DHT22;1977;52.274;10.518;2023-07-29T00:45:24;21.50;99.90
3925;DHT22;1977;52.274;10.518;2023-07-29T00:47:52;21.50;99.90
3925;DHT22;1977;52.274;10.518;2023-07-29T00:50:20;21.50;99.90
3925;DHT22;1977;52.274;10.518;2023-07-29T00:52:48;21.50;99.90
3925;DHT22;1977;52.274;10.518;2023-07-29T00:55:15;21.70;99.90
3925;DHT22;1977;52.274;10.518;2023-07-29T00:57:42;21.60;99.90
3925;DHT22;1977;52.274;10.518;2023-07-29T01:00:14;21.70;99.90
3925;DHT22;1977;52.274;10.518;2023-07-29T01:02:41;21.60;99.90
3925;DHT22;1977;52.274;10.518;2023-07-29T01:05:12;21.70;99.90
3925;DHT22;1977;52.274;10.518;2023-07-29T01:07:45;21.50;99.90
3925;DHT22;1977;52.274;10.518;2023-07-29T01:10:21;21.80;99.90
3925;DHT22;1977;52.274;10.518;2023-07-29T01:12:56;21.70;99.90
3925;DHT22;1977;52.274;10.518;2023-07-29T01:15:30;21.60;99.90
3925;DHT22;1977;52.274;10.518;2023-07-29T01:18:04;21.60;99.90
3925;DHT22;1977;52.274;10.518;2023-07-29T01:20:33;21.60;99.90
3925;DHT22;1977;52.274;10.518;2023-07-29T01:23:03;21.60;99.90
3925;DHT22;1977;52.274;10.518;2023-07-29T01:25:31;21.60;99.90
3925;DHT22;1977;52.274;10.518;2023-07-29T01:27:58;21.60;99.90
3925;DHT22;1977;52.274;10.518;2023-07-29T01:30:30;21.50;99.90
3925;DHT22;1977;52.274;10.518;2023-07-29T01:33:02;21.50;99.90
3925;DHT22;1977;52.274;10.518;2023-07-29T01:35:34;21.50;99.90
3925;DHT22;1977;52.274;10.518;2023-07-29T01:38:05;21.50;99.90
3925;DHT22;1977;52.274;10.518;2023-07-29T01:40:33;21.50;99.90
3925;DHT22;1977;52.274;10.518;2023-07-29T01:43:00;21.50;99.90
3925;DHT22;1977;52.274;10.518;2023-07-29T01:45:28;21.60;99.90
3925;DHT22;1977;52.274;10.518;2023-07-29T01:47:57;21.40;99.90
3925;DHT22;1977;52.274;10.518;2023-07-29T01:50:24;21.40;99.90
3925;DHT22;1977;52.274;10.518;2023-07-29T01:52:50;21.40;99.90
3925;DHT22;1977;52.274;10.518;2023-07-29T01:55:17;21.30;99.90
3925;DHT22;1977;52.274;10.518;2023-07-29T01:57:45;21.40;99.90
3925;DHT22;1977;52.274;10.518;2023-07-29T02:00:12;21.30;99.90
3925;DHT22;1977;52.274;10.518;2023-07-29T02:02:39;21.30;99.90
3925;DHT22;1977;52.274;10.518;2023-07-29T02:05:06;21.50;99.90
3925;DHT22;1977;52.274;10.518;2023-07-29T02:07:33;21.30;99.90
3925;DHT22;1977;52.274;10.518;2023-07-29T02:10:00;21.20;99.90
3925;DHT22;1977;52.274;10.518;2023-07-29T02:12:26;21.40;99.90
3925;DHT22;1977;52.274;10.518;2023-07-29T02:14:54;21.30;99.90
3925;DHT22;1977;52.274;10.518;2023-07-29T02:17:21;21.20;99.90
3925;DHT22;1977;52.274;10.518;2023-07-29T02:19:48;21.20;99.90
3925;DHT22;1977;52.274;10.518;2023-07-29T02:22:16;21.20;99.90
3925;DHT22;1977;52.274;10.518;2023-07-29T02:24:43;21.10;99.90
3925;DHT22;1977;52.274;10.518;2023-07-29T02:27:10;21.10;99.90
3925;DHT22;1977;52.274;10.518;2023-07-29T02:29:37;21.10;99.90
3925;DHT22;1977;52.274;10.518;2023-07-29T02:32:05;21.10;99.90
3925;DHT22;1977;52.274;10.518;2023-07-29T02:34:32;21.10;99.90
3925;DHT22;1977;52.274;10.518;2023-07-29T02:36:59;21.10;99.90
3925;DHT22;1977;52.274;10.518;2023-07-29T02:39:25;21.10;99.90
3925;DHT22;1977;52.274;10.518;2023-07-29T02:41:52;21.10;99.90
3925;DHT22;1977;52.274;10.518;2023-07-29T02:44:20;21.10;99.90
3925;DHT22;1977;52.274;10.518;2023-07-29T02:46:47;21.00;99.90
3925;DHT22;1977;52.274;10.518;2023-07-29T02:49:15;21.00;99.90
3925;DHT22;1977;52.274;10.518;2023-07-29T02:51:42;21.00;99.90
3925;DHT22;1977;52.274;10.518;2023-07-29T02:54:09;21.20;99.90
3925;DHT22;1977;52.274;10.518;2023-07-29T02:56:35;21.10;99.90
3925;DHT22;1977;52.274;10.518;2023-07-29T02:59:02;21.00;99.90
3925;DHT22;1977;52.274;10.518;2023-07-29T03:01:29;20.90;99.90
3925;DHT22;1977;52.274;10.518;2023-07-29T03:03:56;20.80;99.90
3925;DHT22;1977;52.274;10.518;2023-07-29T03:06:24;21.00;99.90
3925;DHT22;1977;52.274;10.518;2023-07-29T03:08:51;20.80;99.90
3925;DHT22;1977;52.274;10.518;2023-07-29T03:11:17;20.80;99.90
3925;DHT22;1977;52.274;10.518;2023-07-29T03:13:44;20.80;99.90
3925;DHT22;1977;52.274;10.518;2023-07-29T03:16:12;21.00;99.90
3925;DHT22;1977;52.274;10.518;2023-07-29T03:18:40;20.80;99.90
3925;DHT22;1977;52.274;10.518;2023-07-29T03:21:07;20.80;99.90
3925;DHT22;1977;52.274;10.518;2023-07-29T03:23:38;20.80;99.90
3925;DHT22;1977;52.274;10.518;2023-07-29T03:26:05;20.80;99.90
3925;DHT22;1977;52.274;10.518;2023-07-29T03:28:36;20.90;99.90
3925;DHT22;1977;52.274;10.518;2023-07-29T03:31:03;21.00;99.90
3925;DHT22;1977;52.274;10.518;2023-07-29T03:33:30;20.90;99.90
3925;DHT22;1977;52.274;10.518;2023-07-29T03:35:57;21.00;99.90
3925;DHT22;1977;52.274;10.518;2023-07-29T03:38:23;21.00;99.90
3925;DHT22;1977;52.274;10.518;2023-07-29T03:40:52;21.00;99.90
3925;DHT22;1977;52.274;10.518;2023-07-29T03:43:19;21.00;99.90
3925;DHT22;1977;52.274;10.518;2023-07-29T03:45:45;21.10;99.90
3925;DHT22;1977;52.274;10.518;2023-07-29T03:48:12;21.10;99.90
3925;DHT22;1977;52.274;10.518;2023-07-29T03:50:39;21.10;99.90
3925;DHT22;1977;52.274;10.518;2023-07-29T03:53:06;21.00;99.90
3925;DHT22;1977;52.274;10.518;2023-07-29T03:55:34;21.10;99.90
3925;DHT22;1977;52.274;10.518;2023-07-29T03:58:03;21.20;99.90
3925;DHT22;1977;52.274;10.518;2023-07-29T04:00:29;21.10;99.90
3925;DHT22;1977;52.274;10.518;2023-07-29T04:02:56;21.20;99.90
3925;DHT22;1977;52.274;10.518;2023-07-29T04:05:23;21.30;99.90
3925;DHT22;1977;52.274;10.518;2023-07-29T04:07:50;21.10;99.90
3925;DHT22;1977;52.274;10.518;2023-07-29T04:10:17;21.40;99.90
3925;DHT22;1977;52.274;10.518;2023-07-29T04:12:44;21.20;99.90
3925;DHT22;1977;52.274;10.518;2023-07-29T04:15:12;21.20;99.90
3925;DHT22;1977;52.274;10.518;2023-07-29T04:17:39;21.20;99.90
3925;DHT22;1977;52.274;10.518;2023-07-29T04:20:07;21.30;99.90
3925;DHT22;1977;52.274;10.518;2023-07-29T04:22:34;21.20;99.90
3925;DHT22;1977;52.274;10.518;2023-07-29T04:25:01;21.20;99.90
3925;DHT22;1977;52.274;10.518;2023-07-29T04:27:30;21.20;99.90
3925;DHT22;1977;52.274;10.518;2023-07-29T04:29:56;21.30;99.90
3925;DHT22;1977;52.274;10.518;2023-07-29T04:32:24;21.50;99.90
3925;DHT22;1977;52.274;10.518;2023-07-29T04:34:52;21.50;99.90
3925;DHT22;1977;52.274;10.518;2023-07-29T04:37:19;21.30;99.90
3925;DHT22;1977;52.274;10.518;2023-07-29T04:39:46;21.50;99.90
3925;DHT22;1977;52.274;10.518;2023-07-29T04:42:13;21.40;99.90
3925;DHT22;1977;52.274;10.518;2023-07-29T04:44:39;21.50;99.90
3925;DHT22;1977;52.274;10.518;2023-07-29T04:47:07;21.50;99.90
3925;DHT22;1977;52.274;10.518;2023-07-29T04:49:36;21.50;99.90
3925;DHT22;1977;52.274;10.518;2023-07-29T04:52:03;21.50;99.90
3925;DHT22;1977;52.274;10.518;2023-07-29T04:54:29;21.60;99.90
3925;DHT22;1977;52.274;10.518;2023-07-29T04:56:56;21.90;99.90
3925;DHT22;1977;52.274;10.518;2023-07-29T04:59:23;21.70;99.90
3925;DHT22;1977;52.274;10.518;2023-07-29T05:01:50;21.70;99.90
3925;DHT22;1977;52.274;10.518;2023-07-29T05:04:17;21.60;99.90
3925;DHT22;1977;52.274;10.518;2023-07-29T05:06:45;21.90;99.90
3925;DHT22;1977;52.274;10.518;2023-07-29T05:09:15;21.70;99.90
3925;DHT22;1977;52.274;10.518;2023-07-29T05:11:42;21.80;99.90
3925;DHT22;1977;52.274;10.518;2023-07-29T05:14:10;21.80;99.90
3925;DHT22;1977;52.274;10.518;2023-07-29T05:16:37;21.80;99.90
3925;DHT22;1977;52.274;10.518;2023-07-29T05:19:04;21.80;99.90
3925;DHT22;1977;52.274;10.518;2023-07-29T05:21:31;21.80;99.90
3925;DHT22;1977;52.274;10.518;2023-07-29T05:23:59;21.80;99.90
3925;DHT22;1977;52.274;10.518;2023-07-29T05:26:26;21.80;99.90
3925;DHT22;1977;52.274;10.518;2023-07-29T05:28:53;21.80;99.90
3925;DHT22;1977;52.274;10.518;2023-07-29T05:31:20;21.80;99.90
3925;DHT22;1977;52.274;10.518;2023-07-29T05:33:46;21.80;99.90
3925;DHT22;1977;52.274;10.518;2023-07-29T05:36:13;21.80;99.90
3925;DHT22;1977;52.274;10.518;2023-07-29T05:38:40;21.80;99.90
3925;DHT22;1977;52.274;10.518;2023-07-29T05:41:09;21.90;99.90
3925;DHT22;1977;52.274;10.518;2023-07-29T05:43:35;22.00;99.90
3925;DHT22;1977;52.274;10.518;2023-07-29T05:46:02;22.00;99.90
3925;DHT22;1977;52.274;10.518;2023-07-29T05:48:29;22.00;99.90
3925;DHT22;1977;52.274;10.518;2023-07-29T05:50:56;22.10;99.90
3925;DHT22;1977;52.274;10.518;2023-07-29T05:53:22;22.30;99.90
3925;DHT22;1977;52.274;10.518;2023-07-29T05:55:49;22.20;99.90
3925;DHT22;1977;52.274;10.518;2023-07-29T05:58:17;22.20;99.90
3925;DHT22;1977;52.274;10.518;2023-07-29T06:00:44;22.20;99.90
3925;DHT22;1977;52.274;10.518;2023-07-29T06:03:11;22.30;99.90
3925;DHT22;1977;52.274;10.518;2023-07-29T06:05:38;22.20;99.90
3925;DHT22;1977;52.274;10.518;2023-07-29T06:08:05;22.20;99.90
3925;DHT22;1977;52.274;10.518;2023-07-29T06:10:34;22.10;99.90
3925;DHT22;1977;52.274;10.518;2023-07-29T06:13:00;22.10;99.90
3925;DHT22;1977;52.274;10.518;2023-07-29T06:15:29;22.10;99.90
3925;DHT22;1977;52.274;10.518;2023-07-29T06:17:55;22.10;99.90
3925;DHT22;1977;52.274;10.518;2023-07-29T06:20:22;22.10;99.90
3925;DHT22;1977;52.274;10.518;2023-07-29T06:22:49;22.40;99.90
3925;DHT22;1977;52.274;10.518;2023-07-29T06:25:16;22.10;99.90
3925;DHT22;1977;52.274;10.518;2023-07-29T06:27:42;22.00;99.90
3925;DHT22;1977;52.274;10.518;2023-07-29T06:30:10;22.00;99.90
3925;DHT22;1977;52.274;10.518;2023-07-29T06:32:38;22.00;99.90
3925;DHT22;1977;52.274;10.518;2023-07-29T06:35:05;21.90;99.90
3925;DHT22;1977;52.274;10.518;2023-07-29T06:37:32;22.00;99.90
3925;DHT22;1977;52.274;10.518;2023-07-29T06:39:59;21.80;99.90
3925;DHT22;1977;52.274;10.518;2023-07-29T06:42:26;22.10;99.90
3925;DHT22;1977;52.274;10.518;2023-07-29T06:44:53;21.80;99.90
3925;DHT22;1977;52.274;10.518;2023-07-29T06:47:20;22.00;99.90
3925;DHT22;1977;52.274;10.518;2023-07-29T06:49:48;21.70;99.90
3925;DHT22;1977;52.274;10.518;2023-07-29T06:52:14;22.00;99.90
3925;DHT22;1977;52.274;10.518;2023-07-29T06:54:41;21.70;99.90
3925;DHT22;1977;52.274;10.518;2023-07-29T06:57:08;22.00;99.90
3925;DHT22;1977;52.274;10.518;2023-07-29T06:59:35;21.70;99.90
3925;DHT22;1977;52.274;10.518;2023-07-29T07:02:01;21.60;99.90
3925;DHT22;1977;52.274;10.518;2023-07-29T07:04:28;21.60;99.90
3925;DHT22;1977;52.274;10.518;2023-07-29T07:06:57;21.50;99.90
3925;DHT22;1977;52.274;10.518;2023-07-29T07:09:23;21.50;99.90
3925;DHT22;1977;52.274;10.518;2023-07-29T07:11:50;21.40;99.90
3925;DHT22;1977;52.274;10.518;2023-07-29T07:14:18;21.70;99.90
3925;DHT22;1977;52.274;10.518;2023-07-29T07:16:44;21.40;99.90
3925;DHT22;1977;52.274;10.518;2023-07-29T07:19:11;21.40;99.90
3925;DHT22;1977;52.274;10.518;2023-07-29T07:21:38;21.40;99.90
3925;DHT22;1977;52.274;10.518;2023-07-29T07:24:06;21.40;99.90
3925;DHT22;1977;52.274;10.518;2023-07-29T07:26:33;21.30;99.90
3925;DHT22;1977;52.274;10.518;2023-07-29T07:29:00;21.20;99.90
3925;DHT22;1977;52.274;10.518;2023-07-29T07:31:27;21.30;99.90
3925;DHT22;1977;52.274;10.518;2023-07-29T07:33:54;21.30;99.90
3925;DHT22;1977;52.274;10.518;2023-07-29T07:36:20;21.30;99.90
3925;DHT22;1977;52.274;10.518;2023-07-29T07:38:47;21.40;99.90
3925;DHT22;1977;52.274;10.518;2023-07-29T07:41:15;21.30;99.90
3925;DHT22;1977;52.274;10.518;2023-07-29T07:43:42;21.30;99.90
3925;DHT22;1977;52.274;10.518;2023-07-29T07:46:09;21.40;99.90
3925;DHT22;1977;52.274;10.518;2023-07-29T07:48:35;21.40;99.90
3925;DHT22;1977;52.274;10.518;2023-07-29T07:51:10;21.50;99.90
3925;DHT22;1977;52.274;10.518;2023-07-29T07:53:37;21.50;99.90
3925;DHT22;1977;52.274;10.518;2023-07-29T07:56:04;21.50;99.90
3925;DHT22;1977;52.274;10.518;2023-07-29T07:58:32;21.50;99.90
3925;DHT22;1977;52.274;10.518;2023-07-29T08:01:01;21.60;99.90
3925;DHT22;1977;52.274;10.518;2023-07-29T08:03:28;21.60;99.90
3925;DHT22;1977;52.274;10.518;2023-07-29T08:05:55;21.60;99.90
3925;DHT22;1977;52.274;10.518;2023-07-29T08:08:22;21.60;99.90
3925;DHT22;1977;52.274;10.518;2023-07-29T08:10:49;21.70;99.90
3925;DHT22;1977;52.274;10.518;2023-07-29T08:13:16;21.80;99.90
3925;DHT22;1977;52.274;10.518;2023-07-29T08:15:47;22.10;99.90
3925;DHT22;1977;52.274;10.518;2023-07-29T08:18:14;22.10;99.90
3925;DHT22;1977;52.274;10.518;2023-07-29T08:20:41;22.10;99.90
3925;DHT22;1977;52.274;10.518;2023-07-29T08:23:08;22.40;99.90
3925;DHT22;1977;52.274;10.518;2023-07-29T08:25:35;22.60;99.90
3925;DHT22;1977;52.274;10.518;2023-07-29T08:28:01;23.10;99.90
3925;DHT22;1977;52.274;10.518;2023-07-29T08:30:28;23.00;99.90
3925;DHT22;1977;52.274;10.518;2023-07-29T08:32:56;23.10;99.90
3925;DHT22;1977;52.274;10.518;2023-07-29T08:35:23;23.00;99.90
3925;DHT22;1977;52.274;10.518;2023-07-29T08:37:50;23.10;99.90
3925;DHT22;1977;52.274;10.518;2023-07-29T08:40:17;23.30;99.90
3925;DHT22;1977;52.274;10.518;2023-07-29T08:42:45;23.30;99.90
3925;DHT22;1977;52.274;10.518;2023-07-29T08:45:14;23.40;99.90
3925;DHT22;1977;52.274;10.518;2023-07-29T08:47:41;23.50;99.90
3925;DHT22;1977;52.274;10.518;2023-07-29T08:50:09;23.60;99.90
3925;DHT22;1977;52.274;10.518;2023-07-29T08:52:36;23.60;99.90
3925;DHT22;1977;52.274;10.518;2023-07-29T08:55:04;23.50;99.90
3925;DHT22;1977;52.274;10.518;2023-07-29T08:57:31;23.40;99.90
3925;DHT22;1977;52.274;10.518;2023-07-29T08:59:58;23.50;99.90
3925;DHT22;1977;52.274;10.518;2023-07-29T09:02:25;23.40;99.90
3925;DHT22;1977;52.274;10.518;2023-07-29T09:04:52;23.20;99.90
3925;DHT22;1977;52.274;10.518;2023-07-29T09:07:20;23.40;99.90
3925;DHT22;1977;52.274;10.518;2023-07-29T09:09:47;23.20;99.90
3925;DHT22;1977;52.274;10.518;2023-07-29T09:12:14;23.40;99.90
3925;DHT22;1977;52.274;10.518;2023-07-29T09:14:41;23.10;99.90
3925;DHT22;1977;52.274;10.518;2023-07-29T09:17:08;23.40;99.90
3925;DHT22;1977;52.274;10.518;2023-07-29T09:19:36;23.20;99.90
3925;DHT22;1977;52.274;10.518;2023-07-29T09:22:03;23.20;99.90
3925;DHT22;1977;52.274;10.518;2023-07-29T09:24:31;23.10;99.90
3925;DHT22;1977;52.274;10.518;2023-07-29T09:26:59;23.10;99.90
3925;DHT22;1977;52.274;10.518;2023-07-29T09:29:28;23.00;99.90
3925;DHT22;1977;52.274;10.518;2023-07-29T09:32:18;22.90;99.90
3925;DHT22;1977;52.274;10.518;2023-07-29T09:34:45;22.90;99.90
3925;DHT22;1977;52.274;10.518;2023-07-29T09:37:16;22.90;99.90
3925;DHT22;1977;52.274;10.518;2023-07-29T09:39:45;23.00;99.90
3925;DHT22;1977;52.274;10.518;2023-07-29T09:42:17;23.30;99.90
3925;DHT22;1977;52.274;10.518;2023-07-29T09:44:44;23.20;99.90
3925;DHT22;1977;52.274;10.518;2023-07-29T09:47:19;23.30;99.90
3925;DHT22;1977;52.274;10.518;2023-07-29T09:49:46;23.20;99.90
3925;DHT22;1977;52.274;10.518;2023-07-29T09:52:14;23.30;99.90
3925;DHT22;1977;52.274;10.518;2023-07-29T09:54:42;23.30;99.90
3925;DHT22;1977;52.274;10.518;2023-07-29T09:57:10;23.20;99.90
3925;DHT22;1977;52.274;10.518;2023-07-29T09:59:37;23.20;99.90
3925;DHT22;1977;52.274;10.518;2023-07-29T10:02:04;23.50;99.90
3925;DHT22;1977;52.274;10.518;2023-07-29T10:04:35;23.20;99.90
3925;DHT22;1977;52.274;10.518;2023-07-29T10:07:02;23.30;99.90
3925;DHT22;1977;52.274;10.518;2023-07-29T10:09:30;23.20;99.90
3925;DHT22;1977;52.274;10.518;2023-07-29T10:11:58;23.30;99.90
3925;DHT22;1977;52.274;10.518;2023-07-29T10:14:28;23.40;99.90
3925;DHT22;1977;52.274;10.518;2023-07-29T10:16:56;23.70;99.90
3925;DHT22;1977;52.274;10.518;2023-07-29T10:19:24;24.00;99.90
3925;DHT22;1977;52.274;10.518;2023-07-29T10:21:52;24.30;99.90
3925;DHT22;1977;52.274;10.518;2023-07-29T10:24:25;24.50;99.90
3925;DHT22;1977;52.274;10.518;2023-07-29T10:26:57;24.70;99.90
3925;DHT22;1977;52.274;10.518;2023-07-29T10:29:30;25.10;99.90
3925;DHT22;1977;52.274;10.518;2023-07-29T10:31:58;25.30;99.90
3925;DHT22;1977;52.274;10.518;2023-07-29T10:34:28;25.50;99.90
3925;DHT22;1977;52.274;10.518;2023-07-29T10:36:56;25.60;99.90
3925;DHT22;1977;52.274;10.518;2023-07-29T10:39:24;25.70;99.90
3925;DHT22;1977;52.274;10.518;2023-07-29T10:41:58;25.60;99.90
3925;DHT22;1977;52.274;10.518;2023-07-29T10:44:49;25.40;99.90
3925;DHT22;1977;52.274;10.518;2023-07-29T10:47:18;25.40;99.90
3925;DHT22;1977;52.274;10.518;2023-07-29T10:49:50;25.30;99.90
3925;DHT22;1977;52.274;10.518;2023-07-29T10:52:28;25.20;99.90
3925;DHT22;1977;52.274;10.518;2023-07-29T10:54:55;25.20;99.90
3925;DHT22;1977;52.274;10.518;2023-07-29T10:57:31;25.10;99.90
3925;DHT22;1977;52.274;10.518;2023-07-29T10:59:59;25.10;99.90
3925;DHT22;1977;52.274;10.518;2023-07-29T11:02:30;25.40;99.90
3925;DHT22;1977;52.274;10.518;2023-07-29T11:04:58;25.20;99.90
3925;DHT22;1977;52.274;10.518;2023-07-29T11:07:26;25.20;99.90
3925;DHT22;1977;52.274;10.518;2023-07-29T11:09:54;25.30;99.90
3925;DHT22;1977;52.274;10.518;2023-07-29T11:15:23;25.20;99.90
3925;DHT22;1977;52.274;10.518;2023-07-29T11:17:51;25.20;99.90
3925;DHT22;1977;52.274;10.518;2023-07-29T11:20:19;25.10;99.90
3925;DHT22;1977;52.274;10.518;2023-07-29T11:22:47;25.00;99.90
3925;DHT22;1977;52.274;10.518;2023-07-29T11:25:16;25.00;99.90
3925;DHT22;1977;52.274;10.518;2023-07-29T11:27:45;24.90;99.90
3925;DHT22;1977;52.274;10.518;2023-07-29T11:30:13;24.90;99.90
3925;DHT22;1977;52.274;10.518;2023-07-29T11:32:43;24.80;99.90
3925;DHT22;1977;52.274;10.518;2023-07-29T11:35:11;24.70;99.90
3925;DHT22;1977;52.274;10.518;2023-07-29T11:37:41;24.70;99.90
3925;DHT22;1977;52.274;10.518;2023-07-29T11:40:08;24.60;99.90
3925;DHT22;1977;52.274;10.518;2023-07-29T11:42:36;24.60;99.90
3925;DHT22;1977;52.274;10.518;2023-07-29T11:45:04;24.50;99.90
3925;DHT22;1977;52.274;10.518;2023-07-29T11:47:32;24.40;99.90
3925;DHT22;1977;52.274;10.518;2023-07-29T11:50:03;24.40;99.90
3925;DHT22;1977;52.274;10.518;2023-07-29T11:52:31;24.40;99.90
3925;DHT22;1977;52.274;10.518;2023-07-29T11:55:00;24.40;99.90
3925;DHT22;1977;52.274;10.518;2023-07-29T11:57:28;24.40;99.90
3925;DHT22;1977;52.274;10.518;2023-07-29T11:59:55;24.50;99.90
3925;DHT22;1977;52.274;10.518;2023-07-29T12:02:23;24.50;99.90
3925;DHT22;1977;52.274;10.518;2023-07-29T12:04:50;24.50;99.90
3925;DHT22;1977;52.274;10.518;2023-07-29T12:07:19;24.50;99.90
3925;DHT22;1977;52.274;10.518;2023-07-29T12:09:46;24.40;99.90
3925;DHT22;1977;52.274;10.518;2023-07-29T12:12:14;24.50;99.90
3925;DHT22;1977;52.274;10.518;2023-07-29T12:14:44;24.30;99.90
3925;DHT22;1977;52.274;10.518;2023-07-29T12:17:12;24.50;99.90
3925;DHT22;1977;52.274;10.518;2023-07-29T12:19:39;24.40;99.90
3925;DHT22;1977;52.274;10.518;2023-07-29T12:22:07;24.60;99.90
3925;DHT22;1977;52.274;10.518;2023-07-29T12:24:37;24.50;99.90
3925;DHT22;1977;52.274;10.518;2023-07-29T12:27:05;24.60;99.90
3925;DHT22;1977;52.274;10.518;2023-07-29T12:29:32;24.60;99.90
3925;DHT22;1977;52.274;10.518;2023-07-29T12:32:06;24.70;99.90
3925;DHT22;1977;52.274;10.518;2023-07-29T12:34:33;24.70;99.90
3925;DHT22;1977;52.274;10.518;2023-07-29T12:37:02;24.80;99.90
3925;DHT22;1977;52.274;10.518;2023-07-29T12:39:32;24.90;99.90
3925;DHT22;1977;52.274;10.518;2023-07-29T12:42:02;24.90;99.90
3925;DHT22;1977;52.274;10.518;2023-07-29T12:44:31;24.90;99.90
3925;DHT22;1977;52.274;10.518;2023-07-29T12:46:58;24.90;99.90
3925;DHT22;1977;52.274;10.518;2023-07-29T12:49:25;24.90;99.90
3925;DHT22;1977;52.274;10.518;2023-07-29T12:51:53;25.00;99.90
3925;DHT22;1977;52.274;10.518;2023-07-29T12:54:20;25.00;99.90
3925;DHT22;1977;52.274;10.518;2023-07-29T12:56:47;24.90;99.90
3925;DHT22;1977;52.274;10.518;2023-07-29T12:59:15;24.90;99.90
3925;DHT22;1977;52.274;10.518;2023-07-29T13:01:42;24.90;99.90
3925;DHT22;1977;52.274;10.518;2023-07-29T13:04:09;24.90;99.90
3925;DHT22;1977;52.274;10.518;2023-07-29T13:06:36;25.00;99.90
3925;DHT22;1977;52.274;10.518;2023-07-29T13:09:03;24.80;99.90
3925;DHT22;1977;52.274;10.518;2023-07-29T13:11:31;24.80;99.90
3925;DHT22;1977;52.274;10.518;2023-07-29T13:13:58;24.80;99.90
3925;DHT22;1977;52.274;10.518;2023-07-29T13:16:27;24.90;99.90
3925;DHT22;1977;52.274;10.518;2023-07-29T13:18:54;24.90;99.90
3925;DHT22;1977;52.274;10.518;2023-07-29T13:21:21;24.90;99.90
3925;DHT22;1977;52.274;10.518;2023-07-29T13:23:48;24.90;99.90
3925;DHT22;1977;52.274;10.518;2023-07-29T13:26:14;24.80;99.90
3925;DHT22;1977;52.274;10.518;2023-07-29T13:28:41;24.80;99.90
3925;DHT22;1977;52.274;10.518;2023-07-29T13:31:08;24.80;99.90
3925;DHT22;1977;52.274;10.518;2023-07-29T13:33:37;24.80;99.90
3925;DHT22;1977;52.274;10.518;2023-07-29T13:36:04;24.80;99.90
3925;DHT22;1977;52.274;10.518;2023-07-29T13:38:33;24.80;99.90
3925;DHT22;1977;52.274;10.518;2023-07-29T13:41:00;24.80;99.90
3925;DHT22;1977;52.274;10.518;2023-07-29T13:43:27;24.90;99.90
3925;DHT22;1977;52.274;10.518;2023-07-29T13:45:54;24.80;99.90
3925;DHT22;1977;52.274;10.518;2023-07-29T13:48:21;24.70;99.90
3925;DHT22;1977;52.274;10.518;2023-07-29T13:50:49;24.70;99.90
3925;DHT22;1977;52.274;10.518;2023-07-29T13:53:16;24.70;99.80
3925;DHT22;1977;52.274;10.518;2023-07-29T13:55:43;24.70;99.20
3925;DHT22;1977;52.274;10.518;2023-07-29T13:58:10;24.70;98.40
3925;DHT22;1977;52.274;10.518;2023-07-29T14:00:36;24.70;99.10
3925;DHT22;1977;52.274;10.518;2023-07-29T14:03:03;24.70;97.90
3925;DHT22;1977;52.274;10.518;2023-07-29T14:05:30;24.70;98.00
3925;DHT22;1977;52.274;10.518;2023-07-29T14:07:58;24.80;99.50
3925;DHT22;1977;52.274;10.518;2023-07-29T14:10:25;24.70;98.30
3925;DHT22;1977;52.274;10.518;2023-07-29T14:12:52;24.80;97.70
3925;DHT22;1977;52.274;10.518;2023-07-29T14:15:19;24.60;96.50
3925;DHT22;1977;52.274;10.518;2023-07-29T14:17:46;24.60;96.80
3925;DHT22;1977;52.274;10.518;2023-07-29T14:20:13;24.60;96.70
3925;DHT22;1977;52.274;10.518;2023-07-29T14:22:40;24.60;97.70
3925;DHT22;1977;52.274;10.518;2023-07-29T14:25:08;24.60;96.50
3925;DHT22;1977;52.274;10.518;2023-07-29T14:27:35;24.60;96.70
3925;DHT22;1977;52.274;10.518;2023-07-29T14:30:02;24.60;98.90
3925;DHT22;1977;52.274;10.518;2023-07-29T14:32:29;24.60;97.40
3925;DHT22;1977;52.274;10.518;2023-07-29T14:34:56;24.70;97.50
3925;DHT22;1977;52.274;10.518;2023-07-29T14:37:22;24.70;98.20
3925;DHT22;1977;52.274;10.518;2023-07-29T14:39:49;24.80;98.30
3925;DHT22;1977;52.274;10.518;2023-07-29T14:42:17;24.70;99.50
3925;DHT22;1977;52.274;10.518;2023-07-29T14:44:44;24.70;97.80
3925;DHT22;1977;52.274;10.518;2023-07-29T14:47:11;24.70;98.30
3925;DHT22;1977;52.274;10.518;2023-07-29T14:49:38;24.70;96.80
3925;DHT22;1977;52.274;10.518;2023-07-29T14:52:06;24.90;97.70
3925;DHT22;1977;52.274;10.518;2023-07-29T14:54:33;24.70;97.30
3925;DHT22;1977;52.274;10.518;2023-07-29T14:56:59;24.70;97.40
3925;DHT22;1977;52.274;10.518;2023-07-29T14:59:28;24.70;96.90
3925;DHT22;1977;52.274;10.518;2023-07-29T15:01:54;24.70;97.00
3925;DHT22;1977;52.274;10.518;2023-07-29T15:04:21;24.70;97.30
3925;DHT22;1977;52.274;10.518;2023-07-29T15:06:48;24.70;97.40
3925;DHT22;1977;52.274;10.518;2023-07-29T15:09:15;24.70;97.10
3925;DHT22;1977;52.274;10.518;2023-07-29T15:11:41;24.70;97.00
3925;DHT22;1977;52.274;10.518;2023-07-29T15:14:08;24.70;96.70
3925;DHT22;1977;52.274;10.518;2023-07-29T15:16:36;24.70;96.90
3925;DHT22;1977;52.274;10.518;2023-07-29T15:19:04;24.90;96.70
3925;DHT22;1977;52.274;10.518;2023-07-29T15:21:31;24.70;97.70
3925;DHT22;1977;52.274;10.518;2023-07-29T15:23:59;24.70;97.40
3925;DHT22;1977;52.274;10.518;2023-07-29T15:26:26;24.90;97.70
3925;DHT22;1977;52.274;10.518;2023-07-29T15:28:53;24.70;97.90
3925;DHT22;1977;52.274;10.518;2023-07-29T15:31:20;24.70;97.60
3925;DHT22;1977;52.274;10.518;2023-07-29T15:33:48;24.70;98.50
3925;DHT22;1977;52.274;10.518;2023-07-29T15:36:15;24.70;98.20
3925;DHT22;1977;52.274;10.518;2023-07-29T15:38:42;24.70;98.60
3925;DHT22;1977;52.274;10.518;2023-07-29T15:41:09;24.80;97.80
3925;DHT22;1977;52.274;10.518;2023-07-29T15:43:35;24.80;97.70
3925;DHT22;1977;52.274;10.518;2023-07-29T15:46:02;24.70;97.40
3925;DHT22;1977;52.274;10.518;2023-07-29T15:48:29;24.70;97.70
3925;DHT22;1977;52.274;10.518;2023-07-29T15:50:57;24.70;97.20